CHH525 ZSPD-ZPPP
Flight info
| Callsign | CHH525 |
|---|---|
| Flight time | N/A |
| Altitude | 34100 |
| Route | NXD W131 AKDIM A470 SAGNU W132 OREXA DCT P395 DCT AVDIP W226 IPMUG W611 BIVAV W138 DYG W140 HUY A581 QNX W136 XISLI |
| Aircraft | B38M/M-SDE1FGHILORVWXY/HB1 |
Departure
| Time | 2026-05-05 09:55 |
|---|---|
| Airport | Shanghai Pudong International Airport (ZSPD) |
Arrival
| Time | N/A |
|---|---|
| Airport | Kunming Changshui International Airport (ZPPP) |
| Time | Latitude | Longitude | Altitude | Speed | Heading |
|---|---|---|---|---|---|
| 2026-05-05 09:47 | 31.14860 | 121.79404 | 25 ft | 2 kts | 342° |
| 2026-05-05 09:47 | 31.14889 | 121.79393 | 25 ft | 6 kts | 342° |
| 2026-05-05 09:47 | 31.14944 | 121.79372 | 28 ft | 10 kts | 342° |
| 2026-05-05 09:47 | 31.15024 | 121.79342 | 25 ft | 14 kts | 341° |
| 2026-05-05 09:48 | 31.15126 | 121.79302 | 25 ft | 16 kts | 341° |
| 2026-05-05 09:48 | 31.15236 | 121.79261 | 25 ft | 17 kts | 344° |
| 2026-05-05 09:48 | 31.15351 | 121.79219 | 25 ft | 18 kts | 342° |
| 2026-05-05 09:48 | 31.15394 | 121.79203 | 25 ft | 1 kts | 341° |
| 2026-05-05 09:49 | 31.15430 | 121.79189 | 25 ft | 9 kts | 341° |
| 2026-05-05 09:49 | 31.15495 | 121.79162 | 25 ft | 10 kts | 341° |
| 2026-05-05 09:49 | 31.15567 | 121.79135 | 25 ft | 11 kts | 343° |
| 2026-05-05 09:49 | 31.15645 | 121.79108 | 29 ft | 12 kts | 343° |
| 2026-05-05 09:50 | 31.15729 | 121.79079 | 27 ft | 13 kts | 343° |
| 2026-05-05 09:50 | 31.15817 | 121.79043 | 25 ft | 14 kts | 340° |
| 2026-05-05 09:50 | 31.15910 | 121.79010 | 25 ft | 14 kts | 343° |
| 2026-05-05 09:50 | 31.16007 | 121.78973 | 25 ft | 15 kts | 341° |
| 2026-05-05 09:51 | 31.16108 | 121.78934 | 25 ft | 16 kts | 342° |
| 2026-05-05 09:51 | 31.16165 | 121.78908 | 28 ft | 7 kts | 328° |
| 2026-05-05 09:51 | 31.16177 | 121.78856 | 25 ft | 8 kts | 259° |
| 2026-05-05 09:51 | 31.16158 | 121.78788 | 27 ft | 9 kts | 251° |
| 2026-05-05 09:52 | 31.16135 | 121.78712 | 28 ft | 10 kts | 251° |
| 2026-05-05 09:52 | 31.16114 | 121.78645 | 26 ft | 8 kts | 240° |
| 2026-05-05 09:52 | 31.16063 | 121.78624 | 25 ft | 8 kts | 173° |
| 2026-05-05 09:52 | 31.16038 | 121.78633 | 24 ft | 0 kts | 162° |
| 2026-05-05 09:53 | 31.16034 | 121.78635 | 26 ft | 0 kts | 162° |
| 2026-05-05 09:53 | 31.16031 | 121.78636 | 26 ft | 0 kts | 162° |
| 2026-05-05 09:54 | 31.15945 | 121.78667 | 24 ft | 44 kts | 162° |
| 2026-05-05 09:54 | 31.15427 | 121.78864 | 27 ft | 110 kts | 162° |
| 2026-05-05 09:54 | 31.14521 | 121.79210 | 34 ft | 161 kts | 160° |
| 2026-05-05 09:54 | 31.13377 | 121.79636 | 354 ft | 181 kts | 163° |
| 2026-05-05 09:55 | 31.12157 | 121.80062 | 1090 ft | 182 kts | 165° |
| 2026-05-05 09:55 | 31.10956 | 121.80472 | 1942 ft | 179 kts | 166° |
| 2026-05-05 09:55 | 31.09731 | 121.80888 | 2488 ft | 189 kts | 166° |
| 2026-05-05 09:55 | 31.08391 | 121.81341 | 2848 ft | 211 kts | 166° |
| 2026-05-05 09:56 | 31.06901 | 121.81845 | 3201 ft | 237 kts | 165° |
| 2026-05-05 09:56 | 31.05263 | 121.82402 | 3858 ft | 251 kts | 165° |
| 2026-05-05 09:56 | 31.03539 | 121.82987 | 4604 ft | 263 kts | 164° |
| 2026-05-05 09:56 | 31.01728 | 121.83266 | 5505 ft | 265 kts | 186° |
| 2026-05-05 09:57 | 30.99948 | 121.82592 | 5861 ft | 273 kts | 212° |
| 2026-05-05 09:57 | 30.98495 | 121.81105 | 6369 ft | 282 kts | 230° |
| 2026-05-05 09:57 | 30.97441 | 121.79221 | 7399 ft | 275 kts | 240° |
| 2026-05-05 09:57 | 30.96492 | 121.77271 | 8267 ft | 279 kts | 240° |
| 2026-05-05 09:58 | 30.95525 | 121.75284 | 9046 ft | 283 kts | 241° |
| 2026-05-05 09:58 | 30.94565 | 121.73306 | 9870 ft | 286 kts | 241° |
| 2026-05-05 09:58 | 30.93562 | 121.71242 | 10498 ft | 294 kts | 241° |
| 2026-05-05 09:58 | 30.92542 | 121.69147 | 10882 ft | 310 kts | 241° |
| 2026-05-05 09:59 | 30.91448 | 121.66906 | 11206 ft | 327 kts | 242° |
| 2026-05-05 09:59 | 30.90280 | 121.64515 | 11484 ft | 344 kts | 242° |
| 2026-05-05 09:59 | 30.89078 | 121.62059 | 11714 ft | 361 kts | 242° |
| 2026-05-05 09:59 | 30.87807 | 121.59462 | 11927 ft | 377 kts | 242° |
| 2026-05-05 10:00 | 30.86489 | 121.56770 | 12292 ft | 385 kts | 242° |
| 2026-05-05 10:00 | 30.85170 | 121.54065 | 12968 ft | 385 kts | 242° |
| 2026-05-05 10:00 | 30.83843 | 121.51342 | 13499 ft | 390 kts | 242° |
| 2026-05-05 10:00 | 30.82496 | 121.48581 | 14026 ft | 393 kts | 242° |
| 2026-05-05 10:01 | 30.81142 | 121.45806 | 14509 ft | 396 kts | 242° |
| 2026-05-05 10:01 | 30.79779 | 121.43015 | 14993 ft | 398 kts | 242° |
| 2026-05-05 10:01 | 30.78405 | 121.40205 | 15467 ft | 401 kts | 242° |
| 2026-05-05 10:01 | 30.77023 | 121.37378 | 15941 ft | 403 kts | 242° |
| 2026-05-05 10:02 | 30.75631 | 121.34535 | 16384 ft | 406 kts | 242° |
| 2026-05-05 10:02 | 30.74230 | 121.31675 | 16837 ft | 408 kts | 242° |
| 2026-05-05 10:02 | 30.72818 | 121.28795 | 17272 ft | 411 kts | 242° |
| 2026-05-05 10:02 | 30.71401 | 121.25906 | 17704 ft | 413 kts | 242° |
| 2026-05-05 10:03 | 30.69974 | 121.22999 | 18114 ft | 416 kts | 242° |
| 2026-05-05 10:03 | 30.68553 | 121.20107 | 18495 ft | 418 kts | 241° |
| 2026-05-05 10:03 | 30.67108 | 121.17167 | 18851 ft | 420 kts | 241° |
| 2026-05-05 10:03 | 30.65635 | 121.14173 | 19227 ft | 422 kts | 241° |
| 2026-05-05 10:04 | 30.64176 | 121.11210 | 19584 ft | 424 kts | 241° |
| 2026-05-05 10:04 | 30.62705 | 121.08224 | 19965 ft | 426 kts | 241° |
| 2026-05-05 10:04 | 30.61249 | 121.05271 | 20346 ft | 428 kts | 241° |
| 2026-05-05 10:04 | 30.59766 | 121.02266 | 20710 ft | 430 kts | 241° |
| 2026-05-05 10:05 | 30.58272 | 120.99241 | 21068 ft | 432 kts | 241° |
| 2026-05-05 10:05 | 30.56774 | 120.96210 | 21410 ft | 434 kts | 241° |
| 2026-05-05 10:05 | 30.55268 | 120.93166 | 21769 ft | 436 kts | 241° |
| 2026-05-05 10:05 | 30.53754 | 120.90108 | 22101 ft | 438 kts | 241° |
| 2026-05-05 10:06 | 30.52232 | 120.87035 | 22445 ft | 440 kts | 241° |
| 2026-05-05 10:06 | 30.50704 | 120.83954 | 22791 ft | 442 kts | 241° |
| 2026-05-05 10:06 | 30.49168 | 120.80858 | 23110 ft | 444 kts | 241° |
| 2026-05-05 10:06 | 30.47625 | 120.77749 | 23440 ft | 446 kts | 241° |
| 2026-05-05 10:07 | 30.46070 | 120.74622 | 23716 ft | 448 kts | 241° |
| 2026-05-05 10:07 | 30.44512 | 120.71489 | 24012 ft | 449 kts | 241° |
| 2026-05-05 10:07 | 30.42949 | 120.68350 | 24313 ft | 450 kts | 241° |
| 2026-05-05 10:07 | 30.41384 | 120.65208 | 24599 ft | 451 kts | 241° |
| 2026-05-05 10:08 | 30.40342 | 120.63117 | 24793 ft | 452 kts | 241° |
| 2026-05-05 10:08 | 30.38768 | 120.59961 | 25083 ft | 453 kts | 241° |
| 2026-05-05 10:08 | 30.36654 | 120.55728 | 25459 ft | 455 kts | 241° |
| 2026-05-05 10:08 | 30.35604 | 120.53627 | 25639 ft | 456 kts | 241° |
| 2026-05-05 10:09 | 30.33475 | 120.49369 | 26009 ft | 457 kts | 241° |
| 2026-05-05 10:09 | 30.31882 | 120.46186 | 26287 ft | 458 kts | 241° |
| 2026-05-05 10:09 | 30.30824 | 120.44074 | 26530 ft | 457 kts | 241° |
| 2026-05-05 10:09 | 30.28722 | 120.39878 | 27062 ft | 453 kts | 241° |
| 2026-05-05 10:10 | 30.27142 | 120.36727 | 27458 ft | 452 kts | 241° |
| 2026-05-05 10:10 | 30.26077 | 120.34606 | 27720 ft | 450 kts | 241° |
| 2026-05-05 10:10 | 30.24507 | 120.31480 | 28113 ft | 448 kts | 241° |
| 2026-05-05 10:10 | 30.22439 | 120.27366 | 28644 ft | 446 kts | 241° |
| 2026-05-05 10:11 | 30.21385 | 120.25272 | 28889 ft | 444 kts | 241° |
| 2026-05-05 10:11 | 30.19837 | 120.22195 | 29291 ft | 442 kts | 241° |
| 2026-05-05 10:11 | 30.18311 | 120.19167 | 29685 ft | 440 kts | 241° |
| 2026-05-05 10:11 | 30.16770 | 120.16111 | 30060 ft | 439 kts | 241° |
| 2026-05-05 10:12 | 30.15237 | 120.13073 | 30362 ft | 437 kts | 241° |
| 2026-05-05 10:12 | 30.13707 | 120.10044 | 30651 ft | 436 kts | 241° |
| 2026-05-05 10:12 | 30.12180 | 120.07022 | 30926 ft | 435 kts | 241° |
| 2026-05-05 10:12 | 30.10657 | 120.04010 | 31204 ft | 434 kts | 241° |
| 2026-05-05 10:13 | 30.09131 | 120.00997 | 31445 ft | 434 kts | 241° |
| 2026-05-05 10:13 | 30.07612 | 119.98000 | 31734 ft | 432 kts | 241° |
| 2026-05-05 10:13 | 30.06094 | 119.95007 | 31990 ft | 431 kts | 241° |
| 2026-05-05 10:13 | 30.04580 | 119.92023 | 32260 ft | 430 kts | 241° |
| 2026-05-05 10:14 | 30.03070 | 119.89048 | 32523 ft | 429 kts | 241° |
| 2026-05-05 10:14 | 30.01561 | 119.86079 | 32751 ft | 429 kts | 241° |
| 2026-05-05 10:14 | 30.00056 | 119.83119 | 33027 ft | 427 kts | 241° |
| 2026-05-05 10:14 | 29.98551 | 119.80163 | 33295 ft | 426 kts | 241° |
| 2026-05-05 10:15 | 29.97053 | 119.77222 | 33565 ft | 425 kts | 241° |
| 2026-05-05 10:15 | 29.95558 | 119.74289 | 33818 ft | 424 kts | 241° |
| 2026-05-05 10:15 | 29.94064 | 119.71360 | 34009 ft | 423 kts | 241° |
| 2026-05-05 10:15 | 29.92567 | 119.68429 | 34032 ft | 423 kts | 241° |
| 2026-05-05 10:16 | 29.89585 | 119.62594 | 34049 ft | 422 kts | 241° |
| 2026-05-05 10:16 | 29.86604 | 119.56770 | 34049 ft | 422 kts | 241° |
| 2026-05-05 10:17 | 29.83635 | 119.50979 | 34049 ft | 422 kts | 241° |
| 2026-05-05 10:17 | 29.80644 | 119.45152 | 34061 ft | 423 kts | 241° |
| 2026-05-05 10:18 | 29.77644 | 119.39316 | 34056 ft | 423 kts | 241° |
| 2026-05-05 10:18 | 29.74646 | 119.33494 | 34054 ft | 423 kts | 241° |
| 2026-05-05 10:19 | 29.71641 | 119.27667 | 34052 ft | 423 kts | 241° |
| 2026-05-05 10:19 | 29.68635 | 119.21843 | 34053 ft | 423 kts | 241° |
| 2026-05-05 10:20 | 29.65622 | 119.16015 | 34056 ft | 424 kts | 241° |
| 2026-05-05 10:20 | 29.64361 | 119.13026 | 34050 ft | 420 kts | 253° |
| 2026-05-05 10:20 | 29.63485 | 119.09830 | 34054 ft | 421 kts | 251° |
| 2026-05-05 10:21 | 29.61438 | 119.03506 | 34063 ft | 422 kts | 250° |
| 2026-05-05 10:21 | 29.59349 | 118.97205 | 34056 ft | 422 kts | 250° |
| 2026-05-05 10:22 | 29.57245 | 118.90895 | 34055 ft | 423 kts | 250° |
| 2026-05-05 10:22 | 29.55137 | 118.84588 | 34054 ft | 423 kts | 250° |
| 2026-05-05 10:23 | 29.53025 | 118.78278 | 34053 ft | 423 kts | 250° |
| 2026-05-05 10:23 | 29.50907 | 118.71964 | 34057 ft | 424 kts | 250° |
| 2026-05-05 10:24 | 29.48795 | 118.65680 | 34054 ft | 424 kts | 250° |
| 2026-05-05 10:24 | 29.46658 | 118.59329 | 34067 ft | 425 kts | 250° |
| 2026-05-05 10:25 | 29.44542 | 118.53056 | 34053 ft | 424 kts | 250° |
| 2026-05-05 10:25 | 29.42408 | 118.46739 | 34057 ft | 424 kts | 250° |
| 2026-05-05 10:26 | 29.40268 | 118.40416 | 34050 ft | 425 kts | 250° |
| 2026-05-05 10:26 | 29.38123 | 118.34093 | 34044 ft | 426 kts | 250° |
| 2026-05-05 10:27 | 29.35972 | 118.27759 | 34050 ft | 425 kts | 250° |
| 2026-05-05 10:27 | 29.33826 | 118.21456 | 34052 ft | 425 kts | 251° |
| 2026-05-05 10:28 | 29.31672 | 118.15136 | 34074 ft | 426 kts | 250° |
| 2026-05-05 10:28 | 29.29514 | 118.08815 | 34060 ft | 425 kts | 250° |
| 2026-05-05 10:29 | 29.27353 | 118.02500 | 34041 ft | 425 kts | 250° |
| 2026-05-05 10:29 | 29.25190 | 117.96192 | 34050 ft | 426 kts | 251° |
| 2026-05-05 10:30 | 29.23019 | 117.89868 | 34054 ft | 427 kts | 251° |
| 2026-05-05 10:30 | 29.20844 | 117.83546 | 34049 ft | 427 kts | 251° |
| 2026-05-05 10:31 | 29.18667 | 117.77227 | 34045 ft | 427 kts | 251° |
| 2026-05-05 10:31 | 29.16484 | 117.70907 | 34045 ft | 427 kts | 251° |
| 2026-05-05 10:32 | 29.14312 | 117.64626 | 34037 ft | 427 kts | 251° |
| 2026-05-05 10:32 | 29.12123 | 117.58309 | 34039 ft | 428 kts | 251° |
| 2026-05-05 10:33 | 29.09927 | 117.51982 | 34041 ft | 428 kts | 251° |
| 2026-05-05 10:33 | 29.07732 | 117.45666 | 34037 ft | 428 kts | 251° |
| 2026-05-05 10:34 | 29.05527 | 117.39334 | 34032 ft | 428 kts | 251° |
| 2026-05-05 10:34 | 29.03323 | 117.33015 | 34034 ft | 428 kts | 251° |
| 2026-05-05 10:35 | 29.01160 | 117.26672 | 34029 ft | 427 kts | 253° |
| 2026-05-05 10:35 | 28.99162 | 117.20275 | 34029 ft | 428 kts | 253° |
| 2026-05-05 10:36 | 28.97145 | 117.13874 | 34030 ft | 428 kts | 253° |
| 2026-05-05 10:36 | 28.95125 | 117.07479 | 34027 ft | 428 kts | 253° |
| 2026-05-05 10:37 | 28.93100 | 117.01083 | 34029 ft | 428 kts | 253° |
| 2026-05-05 10:37 | 28.91071 | 116.94684 | 34024 ft | 429 kts | 253° |
| 2026-05-05 10:38 | 28.89039 | 116.88286 | 34023 ft | 429 kts | 253° |
| 2026-05-05 10:38 | 28.87001 | 116.81883 | 34026 ft | 429 kts | 253° |
| 2026-05-05 10:39 | 28.84958 | 116.75477 | 34021 ft | 429 kts | 253° |
| 2026-05-05 10:39 | 28.82914 | 116.69079 | 34020 ft | 430 kts | 253° |
| 2026-05-05 10:40 | 28.80864 | 116.62677 | 34021 ft | 430 kts | 253° |
| 2026-05-05 10:40 | 28.78813 | 116.56281 | 34021 ft | 430 kts | 253° |
| 2026-05-05 10:41 | 28.76760 | 116.49890 | 34019 ft | 431 kts | 253° |
| 2026-05-05 10:41 | 28.74697 | 116.43481 | 34019 ft | 431 kts | 253° |
| 2026-05-05 10:42 | 28.71608 | 116.33908 | 34014 ft | 431 kts | 254° |
| 2026-05-05 10:43 | 28.69530 | 116.27481 | 34164 ft | 432 kts | 254° |
| 2026-05-05 10:43 | 28.68492 | 116.24274 | 34327 ft | 431 kts | 254° |
| 2026-05-05 10:43 | 28.67452 | 116.21066 | 34476 ft | 431 kts | 254° |
| 2026-05-05 10:43 | 28.66412 | 116.17860 | 34617 ft | 431 kts | 254° |
| 2026-05-05 10:44 | 28.65373 | 116.14662 | 34774 ft | 431 kts | 254° |
| 2026-05-05 10:44 | 28.64334 | 116.11465 | 34910 ft | 431 kts | 254° |
| 2026-05-05 10:44 | 28.63293 | 116.08265 | 35048 ft | 430 kts | 254° |
| 2026-05-05 10:44 | 28.62253 | 116.05070 | 35186 ft | 430 kts | 254° |
| 2026-05-05 10:45 | 28.61214 | 116.01884 | 35329 ft | 429 kts | 254° |
| 2026-05-05 10:45 | 28.60177 | 115.98703 | 35464 ft | 429 kts | 254° |
| 2026-05-05 10:45 | 28.59137 | 115.95520 | 35596 ft | 429 kts | 254° |
| 2026-05-05 10:45 | 28.58099 | 115.92344 | 35721 ft | 428 kts | 254° |
| 2026-05-05 10:46 | 28.57061 | 115.89169 | 35844 ft | 428 kts | 254° |
| 2026-05-05 10:46 | 28.56022 | 115.85996 | 35982 ft | 426 kts | 254° |
| 2026-05-05 10:46 | 28.55002 | 115.82884 | 36013 ft | 426 kts | 254° |
| 2026-05-05 10:47 | 28.52929 | 115.76564 | 36013 ft | 426 kts | 254° |
| 2026-05-05 10:47 | 28.50852 | 115.70242 | 36012 ft | 426 kts | 254° |
| 2026-05-05 10:48 | 28.48808 | 115.63922 | 35995 ft | 424 kts | 259° |
| 2026-05-05 10:48 | 28.47822 | 115.57382 | 36009 ft | 420 kts | 264° |
| 2026-05-05 10:49 | 28.46886 | 115.50823 | 36009 ft | 420 kts | 265° |
| 2026-05-05 10:49 | 28.45970 | 115.44261 | 36016 ft | 420 kts | 265° |
| 2026-05-05 10:50 | 28.45058 | 115.37738 | 36011 ft | 421 kts | 265° |
| 2026-05-05 10:50 | 28.44136 | 115.31172 | 36006 ft | 421 kts | 265° |
| 2026-05-05 10:51 | 28.43211 | 115.24608 | 36007 ft | 421 kts | 265° |
| 2026-05-05 10:51 | 28.42282 | 115.18044 | 36009 ft | 421 kts | 265° |
| 2026-05-05 10:52 | 28.41350 | 115.11484 | 36009 ft | 421 kts | 265° |
| 2026-05-05 10:52 | 28.40413 | 115.04909 | 36012 ft | 421 kts | 265° |
| 2026-05-05 10:53 | 28.39474 | 114.98343 | 36006 ft | 421 kts | 265° |
| 2026-05-05 10:53 | 28.38534 | 114.91788 | 36008 ft | 421 kts | 265° |